sensor_id;sensor_type;location;lat;lon;timestamp;temperature;humidity
5775;DHT22;2913;51.120;6.772;2022-12-07T00:01:29;5.90;99.90
5775;DHT22;2913;51.120;6.772;2022-12-07T00:03:59;5.90;99.90
5775;DHT22;2913;51.120;6.772;2022-12-07T00:06:32;5.90;99.90
5775;DHT22;2913;51.120;6.772;2022-12-07T00:08:58;5.90;99.90
5775;DHT22;2913;51.120;6.772;2022-12-07T00:11:24;5.80;99.90
5775;DHT22;2913;51.120;6.772;2022-12-07T00:13:54;5.80;99.90
5775;DHT22;2913;51.120;6.772;2022-12-07T00:16:25;5.80;99.90
5775;DHT22;2913;51.120;6.772;2022-12-07T00:18:51;5.80;99.90
5775;DHT22;2913;51.120;6.772;2022-12-07T00:21:20;5.80;99.90
5775;DHT22;2913;51.120;6.772;2022-12-07T00:23:50;5.80;99.90
5775;DHT22;2913;51.120;6.772;2022-12-07T00:26:22;5.80;99.90
5775;DHT22;2913;51.120;6.772;2022-12-07T00:28:52;5.80;99.90
5775;DHT22;2913;51.120;6.772;2022-12-07T00:31:20;5.80;99.90
5775;DHT22;2913;51.120;6.772;2022-12-07T00:33:50;5.80;99.90
5775;DHT22;2913;51.120;6.772;2022-12-07T00:36:21;5.80;99.90
5775;DHT22;2913;51.120;6.772;2022-12-07T00:38:50;5.70;99.90
5775;DHT22;2913;51.120;6.772;2022-12-07T00:41:19;5.70;99.90
5775;DHT22;2913;51.120;6.772;2022-12-07T00:43:49;5.70;99.90
5775;DHT22;2913;51.120;6.772;2022-12-07T00:46:18;5.70;99.90
5775;DHT22;2913;51.120;6.772;2022-12-07T00:48:45;5.80;99.90
5775;DHT22;2913;51.120;6.772;2022-12-07T00:51:14;5.70;99.90
5775;DHT22;2913;51.120;6.772;2022-12-07T00:53:40;5.70;99.90
5775;DHT22;2913;51.120;6.772;2022-12-07T00:56:07;5.80;99.90
5775;DHT22;2913;51.120;6.772;2022-12-07T00:58:33;5.70;99.90
5775;DHT22;2913;51.120;6.772;2022-12-07T01:01:07;5.70;99.90
5775;DHT22;2913;51.120;6.772;2022-12-07T01:03:33;5.70;99.90
5775;DHT22;2913;51.120;6.772;2022-12-07T01:06:01;5.70;99.90
5775;DHT22;2913;51.120;6.772;2022-12-07T01:08:28;5.80;99.90
5775;DHT22;2913;51.120;6.772;2022-12-07T01:11:05;5.80;99.90
5775;DHT22;2913;51.120;6.772;2022-12-07T01:13:32;5.70;99.90
5775;DHT22;2913;51.120;6.772;2022-12-07T01:15:59;5.70;99.90
5775;DHT22;2913;51.120;6.772;2022-12-07T01:18:30;5.80;99.90
5775;DHT22;2913;51.120;6.772;2022-12-07T01:21:03;5.80;99.90
5775;DHT22;2913;51.120;6.772;2022-12-07T01:23:30;5.70;99.90
5775;DHT22;2913;51.120;6.772;2022-12-07T01:26:02;5.80;99.90
5775;DHT22;2913;51.120;6.772;2022-12-07T01:28:30;5.80;99.90
5775;DHT22;2913;51.120;6.772;2022-12-07T01:33:30;5.70;99.90
5775;DHT22;2913;51.120;6.772;2022-12-07T01:36:12;5.70;99.90
5775;DHT22;2913;51.120;6.772;2022-12-07T01:38:39;5.70;99.90
5775;DHT22;2913;51.120;6.772;2022-12-07T01:41:06;5.70;99.90
5775;DHT22;2913;51.120;6.772;2022-12-07T01:43:33;5.70;99.90
5775;DHT22;2913;51.120;6.772;2022-12-07T01:46:00;5.70;99.90
5775;DHT22;2913;51.120;6.772;2022-12-07T01:48:38;5.70;99.90
5775;DHT22;2913;51.120;6.772;2022-12-07T01:51:09;5.70;99.90
5775;DHT22;2913;51.120;6.772;2022-12-07T01:53:39;5.70;99.90
5775;DHT22;2913;51.120;6.772;2022-12-07T01:56:13;5.70;99.90
5775;DHT22;2913;51.120;6.772;2022-12-07T01:58:40;5.80;99.90
5775;DHT22;2913;51.120;6.772;2022-12-07T02:01:06;5.80;99.90
5775;DHT22;2913;51.120;6.772;2022-12-07T02:03:41;5.80;99.90
5775;DHT22;2913;51.120;6.772;2022-12-07T02:06:08;5.80;99.90
5775;DHT22;2913;51.120;6.772;2022-12-07T02:08:35;5.80;99.90
5775;DHT22;2913;51.120;6.772;2022-12-07T02:11:05;5.80;99.90
5775;DHT22;2913;51.120;6.772;2022-12-07T02:13:35;5.70;99.90
5775;DHT22;2913;51.120;6.772;2022-12-07T02:32:55;5.70;99.90
5775;DHT22;2913;51.120;6.772;2022-12-07T02:38:35;5.70;99.90
5775;DHT22;2913;51.120;6.772;2022-12-07T02:41:06;5.70;99.90
5775;DHT22;2913;51.120;6.772;2022-12-07T02:43:41;5.70;99.90
5775;DHT22;2913;51.120;6.772;2022-12-07T02:46:49;5.60;99.90
5775;DHT22;2913;51.120;6.772;2022-12-07T02:49:08;5.70;99.90
5775;DHT22;2913;51.120;6.772;2022-12-07T02:51:40;5.60;99.90
5775;DHT22;2913;51.120;6.772;2022-12-07T02:54:14;5.60;99.90
5775;DHT22;2913;51.120;6.772;2022-12-07T03:00:06;5.60;99.90
5775;DHT22;2913;51.120;6.772;2022-12-07T03:02:54;5.60;99.90
5775;DHT22;2913;51.120;6.772;2022-12-07T03:13:43;5.60;99.90
5775;DHT22;2913;51.120;6.772;2022-12-07T03:16:28;5.60;99.90
5775;DHT22;2913;51.120;6.772;2022-12-07T03:21:40;5.60;99.90
5775;DHT22;2913;51.120;6.772;2022-12-07T03:24:13;5.60;99.90
5775;DHT22;2913;51.120;6.772;2022-12-07T03:26:41;5.60;99.90
5775;DHT22;2913;51.120;6.772;2022-12-07T03:29:14;5.60;99.90
5775;DHT22;2913;51.120;6.772;2022-12-07T03:31:45;5.60;99.90
5775;DHT22;2913;51.120;6.772;2022-12-07T03:34:25;5.60;99.90
5775;DHT22;2913;51.120;6.772;2022-12-07T03:37:15;5.60;99.90
5775;DHT22;2913;51.120;6.772;2022-12-07T03:42:34;5.60;99.90
5775;DHT22;2913;51.120;6.772;2022-12-07T03:45:01;5.60;99.90
5775;DHT22;2913;51.120;6.772;2022-12-07T03:47:35;5.60;99.90
5775;DHT22;2913;51.120;6.772;2022-12-07T03:50:56;5.60;99.90
5775;DHT22;2913;51.120;6.772;2022-12-07T03:53:08;5.60;99.90
5775;DHT22;2913;51.120;6.772;2022-12-07T03:55:39;5.60;99.90
5775;DHT22;2913;51.120;6.772;2022-12-07T03:58:10;5.60;99.90
5775;DHT22;2913;51.120;6.772;2022-12-07T04:00:37;5.60;99.90
5775;DHT22;2913;51.120;6.772;2022-12-07T04:03:03;5.60;99.90
5775;DHT22;2913;51.120;6.772;2022-12-07T04:05:29;5.60;99.90
5775;DHT22;2913;51.120;6.772;2022-12-07T04:07:54;5.60;99.90
5775;DHT22;2913;51.120;6.772;2022-12-07T04:10:20;5.50;99.90
5775;DHT22;2913;51.120;6.772;2022-12-07T04:12:48;5.50;99.90
5775;DHT22;2913;51.120;6.772;2022-12-07T04:15:13;5.50;99.90
5775;DHT22;2913;51.120;6.772;2022-12-07T04:17:39;5.50;99.90
5775;DHT22;2913;51.120;6.772;2022-12-07T04:20:05;5.50;99.90
5775;DHT22;2913;51.120;6.772;2022-12-07T04:22:31;5.40;99.90
5775;DHT22;2913;51.120;6.772;2022-12-07T04:24:57;5.40;99.90
5775;DHT22;2913;51.120;6.772;2022-12-07T04:27:22;5.30;99.90
5775;DHT22;2913;51.120;6.772;2022-12-07T04:29:50;5.30;99.90
5775;DHT22;2913;51.120;6.772;2022-12-07T04:32:16;5.30;99.90
5775;DHT22;2913;51.120;6.772;2022-12-07T04:34:41;5.20;99.90
5775;DHT22;2913;51.120;6.772;2022-12-07T04:37:07;5.30;99.90
5775;DHT22;2913;51.120;6.772;2022-12-07T04:39:36;5.30;99.90
5775;DHT22;2913;51.120;6.772;2022-12-07T04:42:02;5.30;99.90
5775;DHT22;2913;51.120;6.772;2022-12-07T04:44:28;5.30;99.90
5775;DHT22;2913;51.120;6.772;2022-12-07T04:46:59;5.30;99.90
5775;DHT22;2913;51.120;6.772;2022-12-07T04:49:27;5.30;99.90
5775;DHT22;2913;51.120;6.772;2022-12-07T04:51:53;5.40;99.90
5775;DHT22;2913;51.120;6.772;2022-12-07T04:54:21;5.30;99.90
5775;DHT22;2913;51.120;6.772;2022-12-07T04:56:49;5.30;99.90
5775;DHT22;2913;51.120;6.772;2022-12-07T04:59:16;5.40;99.90
5775;DHT22;2913;51.120;6.772;2022-12-07T05:01:47;5.40;99.90
5775;DHT22;2913;51.120;6.772;2022-12-07T05:04:13;5.40;99.90
5775;DHT22;2913;51.120;6.772;2022-12-07T05:06:41;5.40;99.90
5775;DHT22;2913;51.120;6.772;2022-12-07T05:09:06;5.40;99.90
5775;DHT22;2913;51.120;6.772;2022-12-07T05:11:32;5.40;99.90
5775;DHT22;2913;51.120;6.772;2022-12-07T05:16:38;5.40;99.90
5775;DHT22;2913;51.120;6.772;2022-12-07T05:19:07;5.40;99.90
5775;DHT22;2913;51.120;6.772;2022-12-07T05:21:33;5.40;99.90
5775;DHT22;2913;51.120;6.772;2022-12-07T05:23:58;5.30;99.90
5775;DHT22;2913;51.120;6.772;2022-12-07T05:26:27;5.40;99.90
5775;DHT22;2913;51.120;6.772;2022-12-07T05:28:56;5.40;99.90
5775;DHT22;2913;51.120;6.772;2022-12-07T05:31:22;5.30;99.90
5775;DHT22;2913;51.120;6.772;2022-12-07T05:33:51;5.30;99.90
5775;DHT22;2913;51.120;6.772;2022-12-07T05:36:19;5.30;99.90
5775;DHT22;2913;51.120;6.772;2022-12-07T05:38:47;5.30;99.90
5775;DHT22;2913;51.120;6.772;2022-12-07T05:41:17;5.30;99.90
5775;DHT22;2913;51.120;6.772;2022-12-07T05:44:05;5.30;99.90
5775;DHT22;2913;51.120;6.772;2022-12-07T05:46:31;5.30;99.90
5775;DHT22;2913;51.120;6.772;2022-12-07T05:48:57;5.30;99.90
5775;DHT22;2913;51.120;6.772;2022-12-07T05:51:23;5.30;99.90
5775;DHT22;2913;51.120;6.772;2022-12-07T05:53:49;5.30;99.90
5775;DHT22;2913;51.120;6.772;2022-12-07T05:56:15;5.30;99.90
5775;DHT22;2913;51.120;6.772;2022-12-07T05:58:40;5.20;99.90
5775;DHT22;2913;51.120;6.772;2022-12-07T06:01:25;5.20;99.90
5775;DHT22;2913;51.120;6.772;2022-12-07T06:03:50;5.20;99.90
5775;DHT22;2913;51.120;6.772;2022-12-07T06:06:18;5.30;99.90
5775;DHT22;2913;51.120;6.772;2022-12-07T06:08:44;5.30;99.90
5775;DHT22;2913;51.120;6.772;2022-12-07T06:11:10;5.20;99.90
5775;DHT22;2913;51.120;6.772;2022-12-07T06:13:54;5.30;99.90
5775;DHT22;2913;51.120;6.772;2022-12-07T06:16:20;5.30;99.90
5775;DHT22;2913;51.120;6.772;2022-12-07T06:18:45;5.30;99.90
5775;DHT22;2913;51.120;6.772;2022-12-07T06:21:11;5.30;99.90
5775;DHT22;2913;51.120;6.772;2022-12-07T06:23:39;5.30;99.90
5775;DHT22;2913;51.120;6.772;2022-12-07T06:26:04;5.30;99.90
5775;DHT22;2913;51.120;6.772;2022-12-07T06:28:30;5.30;99.90
5775;DHT22;2913;51.120;6.772;2022-12-07T06:31:02;5.30;99.90
5775;DHT22;2913;51.120;6.772;2022-12-07T06:33:28;5.30;99.90
5775;DHT22;2913;51.120;6.772;2022-12-07T06:35:55;5.30;99.90
5775;DHT22;2913;51.120;6.772;2022-12-07T06:38:22;5.30;99.90
5775;DHT22;2913;51.120;6.772;2022-12-07T06:40:50;5.30;99.90
5775;DHT22;2913;51.120;6.772;2022-12-07T06:43:16;5.30;99.90
5775;DHT22;2913;51.120;6.772;2022-12-07T06:45:41;5.20;99.90
5775;DHT22;2913;51.120;6.772;2022-12-07T06:48:09;5.30;99.90
5775;DHT22;2913;51.120;6.772;2022-12-07T06:50:35;5.30;99.90
5775;DHT22;2913;51.120;6.772;2022-12-07T06:53:03;5.30;99.90
5775;DHT22;2913;51.120;6.772;2022-12-07T06:55:31;5.30;99.90
5775;DHT22;2913;51.120;6.772;2022-12-07T06:57:56;5.30;99.90
5775;DHT22;2913;51.120;6.772;2022-12-07T07:00:24;5.30;99.90
5775;DHT22;2913;51.120;6.772;2022-12-07T07:02:50;5.30;99.90
5775;DHT22;2913;51.120;6.772;2022-12-07T07:05:16;5.30;99.90
5775;DHT22;2913;51.120;6.772;2022-12-07T07:07:42;5.30;99.90
5775;DHT22;2913;51.120;6.772;2022-12-07T07:10:13;5.30;99.90
5775;DHT22;2913;51.120;6.772;2022-12-07T07:12:38;5.30;99.90
5775;DHT22;2913;51.120;6.772;2022-12-07T07:15:07;5.30;99.90
5775;DHT22;2913;51.120;6.772;2022-12-07T07:17:33;5.30;99.90
5775;DHT22;2913;51.120;6.772;2022-12-07T07:20:01;5.30;99.90
5775;DHT22;2913;51.120;6.772;2022-12-07T07:22:26;5.30;99.90
5775;DHT22;2913;51.120;6.772;2022-12-07T07:24:52;5.30;99.90
5775;DHT22;2913;51.120;6.772;2022-12-07T07:27:20;5.30;99.90
5775;DHT22;2913;51.120;6.772;2022-12-07T07:29:48;5.30;99.90
5775;DHT22;2913;51.120;6.772;2022-12-07T07:32:13;5.30;99.90
5775;DHT22;2913;51.120;6.772;2022-12-07T07:34:41;5.30;99.90
5775;DHT22;2913;51.120;6.772;2022-12-07T07:37:09;5.40;99.90
5775;DHT22;2913;51.120;6.772;2022-12-07T07:39:40;5.40;99.90
5775;DHT22;2913;51.120;6.772;2022-12-07T07:42:06;5.40;99.90
5775;DHT22;2913;51.120;6.772;2022-12-07T07:44:34;5.30;99.90
5775;DHT22;2913;51.120;6.772;2022-12-07T07:47:03;5.30;99.90
5775;DHT22;2913;51.120;6.772;2022-12-07T07:49:30;5.30;99.90
5775;DHT22;2913;51.120;6.772;2022-12-07T07:51:59;5.40;99.90
5775;DHT22;2913;51.120;6.772;2022-12-07T07:54:24;5.30;99.90
5775;DHT22;2913;51.120;6.772;2022-12-07T07:56:52;5.30;99.90
5775;DHT22;2913;51.120;6.772;2022-12-07T07:59:18;5.30;99.90
5775;DHT22;2913;51.120;6.772;2022-12-07T08:01:46;5.30;99.90
5775;DHT22;2913;51.120;6.772;2022-12-07T08:04:11;5.30;99.90
5775;DHT22;2913;51.120;6.772;2022-12-07T08:06:39;5.30;99.90
5775;DHT22;2913;51.120;6.772;2022-12-07T08:09:07;5.30;99.90
5775;DHT22;2913;51.120;6.772;2022-12-07T08:11:33;5.30;99.90
5775;DHT22;2913;51.120;6.772;2022-12-07T08:14:01;5.30;99.90
5775;DHT22;2913;51.120;6.772;2022-12-07T08:16:27;5.20;99.90
5775;DHT22;2913;51.120;6.772;2022-12-07T08:18:53;5.20;99.90
5775;DHT22;2913;51.120;6.772;2022-12-07T08:21:21;5.20;99.90
5775;DHT22;2913;51.120;6.772;2022-12-07T08:23:47;5.30;99.90
5775;DHT22;2913;51.120;6.772;2022-12-07T08:26:16;5.20;99.90
5775;DHT22;2913;51.120;6.772;2022-12-07T08:28:45;5.20;99.90
5775;DHT22;2913;51.120;6.772;2022-12-07T08:31:17;5.20;99.90
5775;DHT22;2913;51.120;6.772;2022-12-07T08:33:45;5.20;99.90
5775;DHT22;2913;51.120;6.772;2022-12-07T08:36:15;5.20;99.90
5775;DHT22;2913;51.120;6.772;2022-12-07T08:38:41;5.20;99.90
5775;DHT22;2913;51.120;6.772;2022-12-07T08:41:07;5.30;99.90
5775;DHT22;2913;51.120;6.772;2022-12-07T08:43:34;5.40;99.90
5775;DHT22;2913;51.120;6.772;2022-12-07T08:48:30;5.40;99.90
5775;DHT22;2913;51.120;6.772;2022-12-07T08:50:57;5.50;99.90
5775;DHT22;2913;51.120;6.772;2022-12-07T08:53:25;5.40;99.90
5775;DHT22;2913;51.120;6.772;2022-12-07T08:55:54;5.40;99.90
5775;DHT22;2913;51.120;6.772;2022-12-07T08:58:21;5.50;99.90
5775;DHT22;2913;51.120;6.772;2022-12-07T09:00:51;5.50;99.90
5775;DHT22;2913;51.120;6.772;2022-12-07T09:03:19;5.60;99.90
5775;DHT22;2913;51.120;6.772;2022-12-07T09:05:44;5.60;99.90
5775;DHT22;2913;51.120;6.772;2022-12-07T09:08:10;5.60;99.90
5775;DHT22;2913;51.120;6.772;2022-12-07T09:10:36;5.70;99.90
5775;DHT22;2913;51.120;6.772;2022-12-07T09:13:04;5.70;99.90
5775;DHT22;2913;51.120;6.772;2022-12-07T09:15:32;5.70;99.90
5775;DHT22;2913;51.120;6.772;2022-12-07T09:17:57;5.70;99.90
5775;DHT22;2913;51.120;6.772;2022-12-07T09:20:25;5.80;99.90
5775;DHT22;2913;51.120;6.772;2022-12-07T09:22:51;5.80;99.90
5775;DHT22;2913;51.120;6.772;2022-12-07T09:25:16;5.90;99.90
5775;DHT22;2913;51.120;6.772;2022-12-07T09:27:42;5.90;99.90
5775;DHT22;2913;51.120;6.772;2022-12-07T09:30:08;6.00;99.90
5775;DHT22;2913;51.120;6.772;2022-12-07T09:32:36;6.00;99.90
5775;DHT22;2913;51.120;6.772;2022-12-07T09:35:02;6.10;99.90
5775;DHT22;2913;51.120;6.772;2022-12-07T09:37:30;6.10;99.90
5775;DHT22;2913;51.120;6.772;2022-12-07T09:40:00;6.10;99.90
5775;DHT22;2913;51.120;6.772;2022-12-07T09:42:41;6.10;99.90
5775;DHT22;2913;51.120;6.772;2022-12-07T09:45:26;6.20;99.90
5775;DHT22;2913;51.120;6.772;2022-12-07T09:47:52;6.20;99.90
5775;DHT22;2913;51.120;6.772;2022-12-07T09:50:25;6.30;99.90
5775;DHT22;2913;51.120;6.772;2022-12-07T09:52:55;6.30;99.90
5775;DHT22;2913;51.120;6.772;2022-12-07T09:55:26;6.40;99.90
5775;DHT22;2913;51.120;6.772;2022-12-07T09:57:52;6.40;99.90
5775;DHT22;2913;51.120;6.772;2022-12-07T10:00:20;6.40;99.90
5775;DHT22;2913;51.120;6.772;2022-12-07T10:02:57;6.40;99.90
5775;DHT22;2913;51.120;6.772;2022-12-07T10:05:24;6.40;99.90
5775;DHT22;2913;51.120;6.772;2022-12-07T10:07:51;6.40;99.90
5775;DHT22;2913;51.120;6.772;2022-12-07T10:10:37;6.40;99.90
5775;DHT22;2913;51.120;6.772;2022-12-07T10:13:19;6.40;99.90
5775;DHT22;2913;51.120;6.772;2022-12-07T10:15:54;6.50;99.90
5775;DHT22;2913;51.120;6.772;2022-12-07T10:18:25;6.50;99.90
5775;DHT22;2913;51.120;6.772;2022-12-07T10:21:01;6.50;99.90
5775;DHT22;2913;51.120;6.772;2022-12-07T10:23:29;6.60;99.90
5775;DHT22;2913;51.120;6.772;2022-12-07T10:25:55;6.60;99.90
5775;DHT22;2913;51.120;6.772;2022-12-07T10:28:23;6.60;99.90
5775;DHT22;2913;51.120;6.772;2022-12-07T10:33:38;6.60;99.90
5775;DHT22;2913;51.120;6.772;2022-12-07T10:39:12;6.70;99.90
5775;DHT22;2913;51.120;6.772;2022-12-07T10:44:26;6.70;99.90
5775;DHT22;2913;51.120;6.772;2022-12-07T11:02:46;6.80;99.90
5775;DHT22;2913;51.120;6.772;2022-12-07T11:10:44;6.80;99.90
5775;DHT22;2913;51.120;6.772;2022-12-07T11:13:28;6.90;99.90
5775;DHT22;2913;51.120;6.772;2022-12-07T11:18:55;7.00;99.90
5775;DHT22;2913;51.120;6.772;2022-12-07T11:21:40;7.00;99.90
5775;DHT22;2913;51.120;6.772;2022-12-07T11:24:20;7.00;99.90
5775;DHT22;2913;51.120;6.772;2022-12-07T11:27:14;7.10;99.90
5775;DHT22;2913;51.120;6.772;2022-12-07T11:38:23;7.50;99.90
5775;DHT22;2913;51.120;6.772;2022-12-07T11:40:53;7.50;99.90
5775;DHT22;2913;51.120;6.772;2022-12-07T11:43:28;7.60;99.90
5775;DHT22;2913;51.120;6.772;2022-12-07T11:46:08;7.50;99.90
5775;DHT22;2913;51.120;6.772;2022-12-07T11:49:01;7.60;99.90
5775;DHT22;2913;51.120;6.772;2022-12-07T11:51:36;7.60;99.90
5775;DHT22;2913;51.120;6.772;2022-12-07T11:54:17;7.60;99.90
5775;DHT22;2913;51.120;6.772;2022-12-07T11:56:49;7.60;99.90
5775;DHT22;2913;51.120;6.772;2022-12-07T11:59:36;7.60;99.90
5775;DHT22;2913;51.120;6.772;2022-12-07T12:04:50;7.70;99.90
5775;DHT22;2913;51.120;6.772;2022-12-07T12:07:23;7.80;99.90
5775;DHT22;2913;51.120;6.772;2022-12-07T12:10:05;7.70;99.90
5775;DHT22;2913;51.120;6.772;2022-12-07T12:21:28;7.80;99.90
5775;DHT22;2913;51.120;6.772;2022-12-07T12:24:10;7.80;99.90
5775;DHT22;2913;51.120;6.772;2022-12-07T12:26:38;7.80;99.90
5775;DHT22;2913;51.120;6.772;2022-12-07T12:29:18;7.90;99.90
5775;DHT22;2913;51.120;6.772;2022-12-07T12:31:47;7.90;99.90
5775;DHT22;2913;51.120;6.772;2022-12-07T12:42:55;8.10;99.90
5775;DHT22;2913;51.120;6.772;2022-12-07T12:45:22;8.10;99.90
5775;DHT22;2913;51.120;6.772;2022-12-07T12:47:57;8.10;99.90
5775;DHT22;2913;51.120;6.772;2022-12-07T12:50:30;8.20;99.90
5775;DHT22;2913;51.120;6.772;2022-12-07T13:00:44;8.30;99.90
5775;DHT22;2913;51.120;6.772;2022-12-07T13:03:25;8.20;99.90
5775;DHT22;2913;51.120;6.772;2022-12-07T13:08:50;8.00;99.90
5775;DHT22;2913;51.120;6.772;2022-12-07T13:11:41;8.00;99.90
5775;DHT22;2913;51.120;6.772;2022-12-07T13:17:12;7.80;99.90
5775;DHT22;2913;51.120;6.772;2022-12-07T13:20:07;7.70;99.90
5775;DHT22;2913;51.120;6.772;2022-12-07T13:27:41;7.70;99.90
5775;DHT22;2913;51.120;6.772;2022-12-07T13:30:17;7.70;99.90
5775;DHT22;2913;51.120;6.772;2022-12-07T13:32:43;7.70;99.90
5775;DHT22;2913;51.120;6.772;2022-12-07T13:35:34;7.80;99.90
5775;DHT22;2913;51.120;6.772;2022-12-07T13:38:27;7.70;99.90
5775;DHT22;2913;51.120;6.772;2022-12-07T13:41:10;7.70;99.90
5775;DHT22;2913;51.120;6.772;2022-12-07T13:43:48;7.70;99.90
5775;DHT22;2913;51.120;6.772;2022-12-07T13:46:14;7.70;99.90
5775;DHT22;2913;51.120;6.772;2022-12-07T13:48:44;7.70;99.90
5775;DHT22;2913;51.120;6.772;2022-12-07T13:51:18;7.70;99.90
5775;DHT22;2913;51.120;6.772;2022-12-07T13:53:49;7.70;99.90
5775;DHT22;2913;51.120;6.772;2022-12-07T13:56:15;7.70;99.90
5775;DHT22;2913;51.120;6.772;2022-12-07T13:58:44;7.70;99.90
5775;DHT22;2913;51.120;6.772;2022-12-07T14:01:12;7.70;99.90
5775;DHT22;2913;51.120;6.772;2022-12-07T14:03:38;7.60;99.90
5775;DHT22;2913;51.120;6.772;2022-12-07T14:06:14;7.60;99.90
5775;DHT22;2913;51.120;6.772;2022-12-07T14:08:43;7.60;99.90
5775;DHT22;2913;51.120;6.772;2022-12-07T14:11:20;7.60;99.90
5775;DHT22;2913;51.120;6.772;2022-12-07T14:13:54;7.60;99.90
5775;DHT22;2913;51.120;6.772;2022-12-07T14:18:53;7.60;99.90
5775;DHT22;2913;51.120;6.772;2022-12-07T14:21:21;7.50;99.90
5775;DHT22;2913;51.120;6.772;2022-12-07T14:26:38;7.50;99.90
5775;DHT22;2913;51.120;6.772;2022-12-07T14:29:34;7.50;99.90
5775;DHT22;2913;51.120;6.772;2022-12-07T14:32:34;7.60;99.90
5775;DHT22;2913;51.120;6.772;2022-12-07T14:35:12;7.60;99.90
5775;DHT22;2913;51.120;6.772;2022-12-07T14:37:40;7.50;99.90
5775;DHT22;2913;51.120;6.772;2022-12-07T14:40:06;7.50;99.90
5775;DHT22;2913;51.120;6.772;2022-12-07T14:42:35;7.50;99.90
5775;DHT22;2913;51.120;6.772;2022-12-07T14:45:03;7.40;99.90
5775;DHT22;2913;51.120;6.772;2022-12-07T14:47:29;7.40;99.90
5775;DHT22;2913;51.120;6.772;2022-12-07T14:49:54;7.30;99.90
5775;DHT22;2913;51.120;6.772;2022-12-07T14:52:27;7.30;99.90
5775;DHT22;2913;51.120;6.772;2022-12-07T14:54:56;7.20;99.90
5775;DHT22;2913;51.120;6.772;2022-12-07T14:57:22;7.20;99.90
5775;DHT22;2913;51.120;6.772;2022-12-07T14:59:48;7.20;99.90
5775;DHT22;2913;51.120;6.772;2022-12-07T15:02:16;7.10;99.90
5775;DHT22;2913;51.120;6.772;2022-12-07T15:04:42;7.10;99.90
5775;DHT22;2913;51.120;6.772;2022-12-07T15:07:21;7.00;99.90
5775;DHT22;2913;51.120;6.772;2022-12-07T15:09:47;7.00;99.90
5775;DHT22;2913;51.120;6.772;2022-12-07T15:12:13;6.90;99.90
5775;DHT22;2913;51.120;6.772;2022-12-07T15:14:41;6.90;99.90
5775;DHT22;2913;51.120;6.772;2022-12-07T15:17:10;6.70;99.90
5775;DHT22;2913;51.120;6.772;2022-12-07T15:19:36;6.70;99.90
5775;DHT22;2913;51.120;6.772;2022-12-07T15:22:02;6.60;99.90
5775;DHT22;2913;51.120;6.772;2022-12-07T15:24:28;6.60;99.90
5775;DHT22;2913;51.120;6.772;2022-12-07T15:26:54;6.50;99.90
5775;DHT22;2913;51.120;6.772;2022-12-07T15:29:19;6.50;99.90
5775;DHT22;2913;51.120;6.772;2022-12-07T15:31:50;6.40;99.90
5775;DHT22;2913;51.120;6.772;2022-12-07T15:34:15;6.30;99.90
5775;DHT22;2913;51.120;6.772;2022-12-07T15:36:41;6.30;99.90
5775;DHT22;2913;51.120;6.772;2022-12-07T15:39:10;6.20;99.90
5775;DHT22;2913;51.120;6.772;2022-12-07T15:41:38;6.10;99.90
5775;DHT22;2913;51.120;6.772;2022-12-07T15:44:04;6.10;99.90
5775;DHT22;2913;51.120;6.772;2022-12-07T15:46:48;6.00;99.90
5775;DHT22;2913;51.120;6.772;2022-12-07T15:49:18;5.90;99.90
5775;DHT22;2913;51.120;6.772;2022-12-07T15:51:46;5.90;99.90
5775;DHT22;2913;51.120;6.772;2022-12-07T15:54:26;5.90;99.90
5775;DHT22;2913;51.120;6.772;2022-12-07T15:56:52;5.90;99.90
5775;DHT22;2913;51.120;6.772;2022-12-07T15:59:18;5.90;99.90
5775;DHT22;2913;51.120;6.772;2022-12-07T16:01:43;5.90;99.90
5775;DHT22;2913;51.120;6.772;2022-12-07T16:04:10;5.90;99.90
5775;DHT22;2913;51.120;6.772;2022-12-07T16:06:36;6.00;99.90
5775;DHT22;2913;51.120;6.772;2022-12-07T16:09:02;6.00;99.90
5775;DHT22;2913;51.120;6.772;2022-12-07T16:11:27;5.90;99.90
5775;DHT22;2913;51.120;6.772;2022-12-07T16:13:53;5.90;99.90
5775;DHT22;2913;51.120;6.772;2022-12-07T16:16:19;5.90;99.90
5775;DHT22;2913;51.120;6.772;2022-12-07T16:18:47;5.90;99.90
5775;DHT22;2913;51.120;6.772;2022-12-07T16:21:17;6.00;99.90
5775;DHT22;2913;51.120;6.772;2022-12-07T16:23:45;6.00;99.90
5775;DHT22;2913;51.120;6.772;2022-12-07T16:26:17;6.00;99.90
5775;DHT22;2913;51.120;6.772;2022-12-07T16:28:47;6.00;99.90
5775;DHT22;2913;51.120;6.772;2022-12-07T16:31:18;6.00;99.90
5775;DHT22;2913;51.120;6.772;2022-12-07T16:33:44;6.00;99.90
5775;DHT22;2913;51.120;6.772;2022-12-07T16:36:11;6.00;99.90
5775;DHT22;2913;51.120;6.772;2022-12-07T16:38:41;6.00;99.90
5775;DHT22;2913;51.120;6.772;2022-12-07T16:41:07;6.00;99.90
5775;DHT22;2913;51.120;6.772;2022-12-07T16:43:34;6.00;99.90
5775;DHT22;2913;51.120;6.772;2022-12-07T16:46:00;6.00;99.90
5775;DHT22;2913;51.120;6.772;2022-12-07T16:48:28;6.00;99.90
5775;DHT22;2913;51.120;6.772;2022-12-07T16:50:56;6.10;99.90
5775;DHT22;2913;51.120;6.772;2022-12-07T16:53:23;6.00;99.90
5775;DHT22;2913;51.120;6.772;2022-12-07T16:55:52;6.00;99.90
5775;DHT22;2913;51.120;6.772;2022-12-07T16:58:20;6.00;99.90
5775;DHT22;2913;51.120;6.772;2022-12-07T17:00:48;6.00;99.90
5775;DHT22;2913;51.120;6.772;2022-12-07T17:03:14;6.00;99.90
5775;DHT22;2913;51.120;6.772;2022-12-07T17:05:45;6.00;99.90
5775;DHT22;2913;51.120;6.772;2022-12-07T17:08:12;5.90;99.90
5775;DHT22;2913;51.120;6.772;2022-12-07T17:10:41;5.90;99.90
5775;DHT22;2913;51.120;6.772;2022-12-07T17:13:08;5.90;99.90
5775;DHT22;2913;51.120;6.772;2022-12-07T17:16:01;5.90;99.90
5775;DHT22;2913;51.120;6.772;2022-12-07T17:18:37;5.90;99.90
5775;DHT22;2913;51.120;6.772;2022-12-07T17:21:07;5.90;99.90
5775;DHT22;2913;51.120;6.772;2022-12-07T17:23:39;6.00;99.90
5775;DHT22;2913;51.120;6.772;2022-12-07T17:26:13;5.90;99.90
5775;DHT22;2913;51.120;6.772;2022-12-07T17:28:42;5.90;99.90
5775;DHT22;2913;51.120;6.772;2022-12-07T17:31:10;6.00;99.90
5775;DHT22;2913;51.120;6.772;2022-12-07T17:33:36;6.00;99.90
5775;DHT22;2913;51.120;6.772;2022-12-07T17:36:12;6.00;99.90
5775;DHT22;2913;51.120;6.772;2022-12-07T17:38:39;6.00;99.90
5775;DHT22;2913;51.120;6.772;2022-12-07T17:41:12;6.00;99.90
5775;DHT22;2913;51.120;6.772;2022-12-07T17:43:58;6.00;99.90
5775;DHT22;2913;51.120;6.772;2022-12-07T17:46:24;6.00;99.90
5775;DHT22;2913;51.120;6.772;2022-12-07T17:48:50;6.00;99.90
5775;DHT22;2913;51.120;6.772;2022-12-07T17:51:18;6.00;99.90
5775;DHT22;2913;51.120;6.772;2022-12-07T17:54:02;6.10;99.90
5775;DHT22;2913;51.120;6.772;2022-12-07T17:56:30;6.00;99.90
5775;DHT22;2913;51.120;6.772;2022-12-07T17:58:56;6.00;99.90
5775;DHT22;2913;51.120;6.772;2022-12-07T18:01:22;6.10;99.90
5775;DHT22;2913;51.120;6.772;2022-12-07T18:03:47;6.10;99.90
5775;DHT22;2913;51.120;6.772;2022-12-07T18:06:13;6.10;99.90
5775;DHT22;2913;51.120;6.772;2022-12-07T18:08:38;6.10;99.90
5775;DHT22;2913;51.120;6.772;2022-12-07T18:11:06;6.10;99.90
5775;DHT22;2913;51.120;6.772;2022-12-07T18:13:34;6.10;99.90
5775;DHT22;2913;51.120;6.772;2022-12-07T18:16:01;6.10;99.90
5775;DHT22;2913;51.120;6.772;2022-12-07T18:18:29;6.10;99.90
5775;DHT22;2913;51.120;6.772;2022-12-07T18:20:57;6.10;99.90
5775;DHT22;2913;51.120;6.772;2022-12-07T18:23:23;6.10;99.90
5775;DHT22;2913;51.120;6.772;2022-12-07T18:25:49;6.10;99.90
5775;DHT22;2913;51.120;6.772;2022-12-07T18:28:15;6.10;99.90
5775;DHT22;2913;51.120;6.772;2022-12-07T18:30:41;6.10;99.90
5775;DHT22;2913;51.120;6.772;2022-12-07T18:33:07;6.10;99.90
5775;DHT22;2913;51.120;6.772;2022-12-07T18:35:35;6.00;99.90
5775;DHT22;2913;51.120;6.772;2022-12-07T18:38:01;6.00;99.90
5775;DHT22;2913;51.120;6.772;2022-12-07T18:40:27;6.10;99.90
5775;DHT22;2913;51.120;6.772;2022-12-07T18:42:55;6.10;99.90
5775;DHT22;2913;51.120;6.772;2022-12-07T18:45:20;6.00;99.90